Lakeside, MT (59922)

8:22 AM MST on February 14, 2016 (GMT -0700)
Lakeside | | Change Station
CLOSE
Current Station
Personal Weather Station
Location: Lakeside, MT
Elevation: 2930 ft
Nearby Weather Stations

Elev 2930 ft 48.02 °N, 114.23 °W | Updated 5 minutes ago

Overcast
Overcast
33.2 °F
Feels Like 33 °F
N
0.0
Wind Variable Wind from SW

Today
High -- | Low -- °F
--% Chance of Precip.
Yesterday
High -- | Low -- °F
Precip. -- in
Pressure 30.07 in
Visibility 10.0 miles
Clouds Overcast 4700 ft
Windchill 33 °F
Dew Point 32 °F
Humidity 94%
Rainfall 0.05 in
Snow Depth Not available.
7:45 AM 5:57 PM
Waxing Crescent, 42% visible
METAR KMSO 141453Z 09005KT 10SM OVC047 02/M01 A3001 RMK AO2 SLP181 T00171011 55002 $
Pressure 30.07 in
Visibility 10.0 miles
Clouds Overcast 4700 ft
Windchill 33 °F
Dew Point 32 °F
Humidity 94%
Rainfall 0.05 in
Snow Depth Not available.
7:45 AM 5:57 PM
Waxing Crescent, 42% visible
METAR KMSO 141453Z 09005KT 10SM OVC047 02/M01 A3001 RMK AO2 SLP181 T00171011 55002 $

10-Day Weather Forecast

Almanac

Astronomy

Feb. 14, 2016 Rise Set
Actual Time
Civil Twilight
Nautical Twilight
Astronomical Twilight
Moon
Length of Visible Light
Length of Day
Tomorrow will be .
, % of the Moon is Illuminated

Today's Extremes

State Highs State Lows

Community

WunderPhotos

Upload Photos

1,892,791 photos uploaded!

WunderBlog® & News

Nearby

Air Quality

  Air Quality AQ Index Pollutant
Not available.

Snow Depth

Station Depth Elevation

Earthquake Activity

City Distance Mag. Time & Date
Minimum magnitude displayed is 2.5.

Coastal Water Temperatures

Place Temperature

Stations

Nearby Weather Stations

Station Location Temp. Windchill Dew Point Humidity Wind Precip. Elev Updated Type
                   

Watches & Warnings

There are currently no watches in effect.